Time;durP1;ratioP1;P1;durP2;ratioP2;P2;SDS_P1;SDS_P2;PMS_P1;PMS_P2;Temp;Humidity;BMP_temperature;BMP_pressure;BME280_temperature;BME280_humidity;BME280_pressure;Samples;Min_cycle;Max_cycle;Signal;HPM_P1;HPM_P2
2023/08/07 00:01:53;;;;;;;3.83;1.73;;;;;;;16.38;100.00;95856.81;5052585;28;20048;-80
2023/08/07 00:04:20;;;;;;;3.90;1.27;;;;;;;16.44;100.00;95857.84;5068291;28;20445;-81
2023/08/07 00:06:45;;;;;;;2.70;1.30;;;;;;;16.17;100.00;95868.47;5046837;28;20039;-81
2023/08/07 00:09:11;;;;;;;2.90;1.33;;;;;;;16.29;100.00;95858.03;5066538;28;20470;-81
2023/08/07 00:11:36;;;;;;;3.57;1.20;;;;;;;15.79;100.00;95866.38;5051649;28;20024;-81
2023/08/07 00:14:02;;;;;;;4.53;1.60;;;;;;;15.95;100.00;95859.03;5063123;28;20020;-81
2023/08/07 00:16:28;;;;;;;5.13;1.80;;;;;;;15.84;100.00;95864.94;5060489;28;20593;-81
2023/08/07 00:18:56;;;;;;;3.30;1.43;;;;;;;16.69;100.00;95865.97;5065381;28;20112;-81
2023/08/07 00:21:22;;;;;;;4.50;1.50;;;;;;;16.59;100.00;95860.28;5068814;28;20039;-81
2023/08/07 00:23:49;;;;;;;3.10;1.60;;;;;;;16.34;100.00;95863.56;5050287;28;20033;-81
2023/08/07 00:26:15;;;;;;;4.67;1.57;;;;;;;16.64;100.00;95850.69;5070112;28;20078;-81
2023/08/07 00:28:41;;;;;;;3.33;1.30;;;;;;;15.71;100.00;95853.28;5069985;28;20032;-81
2023/08/07 00:31:06;;;;;;;5.47;1.70;;;;;;;15.89;100.00;95862.50;5069456;28;20032;-81
2023/08/07 00:33:32;;;;;;;4.87;1.60;;;;;;;16.44;100.00;95863.16;5066121;28;20044;-81
2023/08/07 00:35:57;;;;;;;6.03;2.43;;;;;;;16.50;100.00;95854.38;5070248;28;20563;-80
2023/08/07 00:38:24;;;;;;;3.57;1.90;;;;;;;16.58;100.00;95864.78;5050340;28;20068;-83
2023/08/07 00:40:50;;;;;;;9.60;2.20;;;;;;;16.45;100.00;95859.47;5069185;28;20055;-80
2023/08/07 00:43:15;;;;;;;4.60;1.70;;;;;;;16.04;100.00;95857.84;5053031;28;20024;-80
2023/08/07 00:45:43;;;;;;;5.27;1.97;;;;;;;16.38;100.00;95862.13;5053166;28;20028;-80
2023/08/07 00:48:10;;;;;;;6.27;1.70;;;;;;;16.53;100.00;95855.78;5065645;28;20024;-80
2023/08/07 00:50:36;;;;;;;4.70;1.77;;;;;;;16.35;100.00;95864.38;5069092;28;20039;-80
2023/08/07 00:53:05;;;;;;;7.77;1.97;;;;;;;16.02;100.00;95870.47;5066734;28;20024;-81
2023/08/07 00:55:31;;;;;;;5.83;2.10;;;;;;;15.97;100.00;95871.09;5069050;28;20093;-81
2023/08/07 00:57:59;;;;;;;4.47;1.97;;;;;;;16.30;100.00;95870.31;5051458;28;20021;-80
2023/08/07 01:00:29;;;;;;;4.27;2.43;;;;;;;16.56;100.00;95868.66;5052145;28;20016;-80
2023/08/07 01:02:56;;;;;;;4.13;1.67;;;;;;;16.20;100.00;95867.25;5050712;28;20046;-81
2023/08/07 01:05:24;;;;;;;5.77;2.00;;;;;;;16.24;100.00;95877.22;5048405;28;20012;-80
2023/08/07 01:07:54;;;;;;;2.73;1.63;;;;;;;16.24;100.00;95890.50;5064425;28;20028;-81
2023/08/07 01:10:25;;;;;;;4.60;1.77;;;;;;;16.48;100.00;95882.94;5069378;28;20031;-82
2023/08/07 01:12:59;;;;;;;5.30;1.90;;;;;;;16.60;100.00;95880.47;5051010;28;20036;-80
2023/08/07 01:15:32;;;;;;;4.13;1.60;;;;;;;16.05;100.00;95875.38;5067238;28;20115;-80
2023/08/07 01:17:59;;;;;;;5.13;1.70;;;;;;;16.26;100.00;95893.78;5060705;28;20465;-80
2023/08/07 01:20:25;;;;;;;5.87;2.43;;;;;;;16.22;100.00;95876.59;5058506;28;20025;-80
2023/08/07 01:22:50;;;;;;;5.33;2.40;;;;;;;15.92;100.00;95891.25;5063731;28;20017;-81
2023/08/07 01:25:16;;;;;;;6.73;2.27;;;;;;;16.40;100.00;95886.63;5069453;28;20032;-80
2023/08/07 01:27:53;;;;;;;7.40;2.70;;;;;;;16.74;100.00;95884.78;5066205;28;20035;-80
2023/08/07 01:30:42;;;;;;;5.87;2.10;;;;;;;16.64;100.00;95882.53;5062546;28;20059;-80
2023/08/07 01:33:22;;;;;;;5.67;2.27;;;;;;;16.22;100.00;95886.41;5066134;28;20441;-80
2023/08/07 01:35:53;;;;;;;7.03;2.00;;;;;;;15.85;100.00;95895.72;5059852;28;20032;-80
2023/08/07 01:38:22;;;;;;;6.73;2.07;;;;;;;15.86;100.00;95890.25;5045526;28;20025;-81
2023/08/07 01:40:50;;;;;;;7.83;2.20;;;;;;;15.60;100.00;95876.88;5059731;28;20306;-81
2023/08/07 01:43:19;;;;;;;9.00;2.30;;;;;;;16.11;100.00;95887.84;5045833;28;20032;-80
2023/08/07 01:45:44;;;;;;;6.20;2.37;;;;;;;15.98;100.00;95898.41;5068162;28;20395;-80
2023/08/07 01:48:11;;;;;;;4.20;2.27;;;;;;;16.35;100.00;95889.06;5061459;28;20108;-80
2023/08/07 01:50:38;;;;;;;7.50;2.10;;;;;;;16.12;100.00;95889.47;5050907;28;20036;-81
2023/08/07 01:53:04;;;;;;;4.93;2.03;;;;;;;16.67;100.00;95900.72;5051292;28;20028;-80
2023/08/07 01:55:30;;;;;;;5.47;1.90;;;;;;;16.38;100.00;95896.63;5063665;28;20031;-80
2023/08/07 01:57:59;;;;;;;7.07;2.23;;;;;;;15.86;100.00;95897.34;5057371;28;20020;-80
2023/08/07 02:00:24;;;;;;;5.10;2.20;;;;;;;16.26;100.00;95904.41;5050737;28;20093;-79
2023/08/07 02:02:50;;;;;;;5.73;2.00;;;;;;;16.16;100.00;95888.06;5069393;28;20032;-80
2023/08/07 02:05:25;;;;;;;5.47;2.30;;;;;;;16.38;100.00;95898.47;5043235;28;20811;-78
2023/08/07 02:07:51;;;;;;;5.40;1.90;;;;;;;16.00;100.00;95888.44;5049124;28;20044;-78
2023/08/07 02:10:19;;;;;;;6.40;2.77;;;;;;;16.10;100.00;95891.50;5050831;28;20522;-78
2023/08/07 02:12:45;;;;;;;7.23;2.27;;;;;;;16.15;100.00;95890.91;5067703;28;20035;-78
2023/08/07 02:15:10;;;;;;;8.60;2.33;;;;;;;16.10;100.00;95894.16;5049866;28;20013;-78
2023/08/07 02:17:38;;;;;;;8.53;2.83;;;;;;;16.45;100.00;95894.78;5064844;28;20406;-78
2023/08/07 02:20:05;;;;;;;5.20;2.00;;;;;;;16.35;100.00;95890.91;5047723;28;20024;-78
2023/08/07 02:22:31;;;;;;;5.50;2.20;;;;;;;16.19;100.00;95902.72;5066956;28;20023;-79
2023/08/07 02:25:08;;;;;;;4.73;1.73;;;;;;;16.53;100.00;95904.38;5071246;28;20013;-78
2023/08/07 02:27:34;;;;;;;6.87;2.63;;;;;;;15.93;100.00;95903.53;5048231;28;20043;-79
2023/08/07 02:29:59;;;;;;;6.00;2.40;;;;;;;16.09;100.00;95910.25;5071968;28;20378;-78
2023/08/07 02:32:25;;;;;;;5.03;1.80;;;;;;;16.03;100.00;95914.56;5069104;28;20040;-78
2023/08/07 02:34:53;;;;;;;6.07;1.70;;;;;;;15.93;100.00;95914.94;5065914;28;20024;-78
2023/08/07 02:37:20;;;;;;;7.83;2.00;;;;;;;15.90;100.00;95909.22;5053012;28;20516;-79
2023/08/07 02:39:55;;;;;;;7.63;2.17;;;;;;;16.20;100.00;95909.69;5046765;28;20020;-79
2023/08/07 02:42:31;;;;;;;7.20;2.43;;;;;;;16.33;100.00;95915.00;5071610;28;20032;-78
2023/08/07 02:44:57;;;;;;;7.87;2.00;;;;;;;16.16;100.00;95914.59;5051659;28;20017;-78
2023/08/07 02:47:23;;;;;;;4.40;1.83;;;;;;;16.18;100.00;95917.84;5049383;28;20024;-78
2023/08/07 02:49:48;;;;;;;6.63;2.23;;;;;;;16.41;100.00;95919.31;5048653;28;20020;-78
2023/08/07 02:52:14;;;;;;;8.80;2.27;;;;;;;16.31;100.00;95922.34;5053091;28;20044;-78
2023/08/07 02:54:39;;;;;;;7.30;2.30;;;;;;;16.10;100.00;95920.69;5053858;28;20021;-79
2023/08/07 02:57:05;;;;;;;5.40;2.20;;;;;;;16.21;100.00;95933.34;5070717;28;20505;-79
2023/08/07 02:59:30;;;;;;;6.43;1.80;;;;;;;16.18;100.00;95925.78;5050582;28;20024;-78
2023/08/07 03:01:56;;;;;;;5.87;2.00;;;;;;;16.25;100.00;95934.59;5066960;28;20028;-79
2023/08/07 03:04:21;;;;;;;8.20;2.20;;;;;;;15.82;100.00;95930.59;5066974;28;20035;-78
2023/08/07 03:06:47;;;;;;;4.63;2.47;;;;;;;15.66;100.00;95922.00;5050287;28;20723;-79
2023/08/07 03:09:13;;;;;;;6.37;1.83;;;;;;;15.61;100.00;95932.34;5052555;28;20025;-79
2023/08/07 03:11:38;;;;;;;5.13;1.83;;;;;;;16.10;100.00;95926.00;5051861;28;20075;-79
2023/08/07 03:14:04;;;;;;;6.37;2.30;;;;;;;16.23;100.00;95926.03;5066476;28;20013;-79
2023/08/07 03:16:29;;;;;;;4.70;1.70;;;;;;;15.81;100.00;95936.94;5050743;28;20404;-79
2023/08/07 03:18:55;;;;;;;6.63;2.57;;;;;;;16.01;100.00;95927.19;5061155;28;20074;-79
2023/08/07 03:21:21;;;;;;;5.70;2.13;;;;;;;15.87;100.00;95933.50;5052678;28;20024;-79
2023/08/07 03:23:46;;;;;;;6.27;1.87;;;;;;;15.41;100.00;95940.19;5064743;28;20024;-78
2023/08/07 03:26:12;;;;;;;7.93;2.30;;;;;;;15.87;100.00;95939.59;5051946;28;20036;-79
2023/08/07 03:28:50;;;;;;;8.27;2.77;;;;;;;16.25;100.00;95947.84;5069933;28;20032;-79
2023/08/07 03:31:16;;;;;;;5.97;1.70;;;;;;;16.21;100.00;95949.28;5061180;28;20031;-79
2023/08/07 03:33:42;;;;;;;4.43;2.23;;;;;;;16.14;100.00;95948.44;5049747;28;20098;-79
2023/08/07 03:36:09;;;;;;;5.30;1.80;;;;;;;15.82;100.00;95946.50;5064481;28;20028;-78
2023/08/07 03:38:35;;;;;;;11.37;2.50;;;;;;;16.10;100.00;95946.41;5047994;28;20485;-79
2023/08/07 03:41:19;;;;;;;5.63;2.00;;;;;;;16.18;100.00;95954.16;5057773;28;20056;-79
2023/08/07 03:43:45;;;;;;;9.30;2.63;;;;;;;15.89;100.00;95961.41;5047499;28;20025;-79
2023/08/07 03:46:11;;;;;;;6.37;2.10;;;;;;;16.07;100.00;95960.88;5050301;28;20028;-79
2023/08/07 03:48:38;;;;;;;8.73;2.50;;;;;;;16.15;100.00;95966.00;5052749;28;20013;-79
2023/08/07 03:51:05;;;;;;;3.80;1.90;;;;;;;16.15;100.00;95966.00;5052696;28;20032;-79
2023/08/07 03:53:33;;;;;;;6.23;2.37;;;;;;;16.38;100.00;95975.44;5051871;28;20092;-79
2023/08/07 03:55:59;;;;;;;5.30;2.17;;;;;;;16.25;100.00;95976.22;5049394;28;20017;-78
2023/08/07 03:58:24;;;;;;;7.03;1.70;;;;;;;16.19;100.00;95971.72;5069399;28;20441;-79
2023/08/07 04:00:53;;;;;;;6.33;2.30;;;;;;;16.39;100.00;95977.88;5065400;28;20025;-79
2023/08/07 04:03:19;;;;;;;9.17;3.10;;;;;;;16.13;100.00;95970.69;5057444;28;20020;-79
2023/08/07 04:05:45;;;;;;;6.53;2.33;;;;;;;16.48;100.00;95978.50;5050035;28;20487;-79
2023/08/07 04:08:11;;;;;;;4.83;1.90;;;;;;;16.31;100.00;95983.38;5050023;28;20094;-78
2023/08/07 04:10:37;;;;;;;10.20;2.17;;;;;;;16.21;100.00;95975.00;5069045;28;20353;-79
2023/08/07 04:13:03;;;;;;;6.07;2.27;;;;;;;16.33;100.00;95985.81;5068037;28;20506;-79
2023/08/07 04:15:37;;;;;;;6.17;2.50;;;;;;;16.13;100.00;95981.31;5053197;28;20482;-79
2023/08/07 04:18:02;;;;;;;4.80;1.77;;;;;;;15.88;100.00;95988.16;5046702;28;20032;-79
2023/08/07 04:20:28;;;;;;;5.73;2.00;;;;;;;16.33;100.00;95985.81;5054380;28;20034;-79
2023/08/07 04:22:54;;;;;;;5.23;1.93;;;;;;;16.24;100.00;95985.22;5081904;28;20687;-79
2023/08/07 04:25:20;;;;;;;6.67;2.13;;;;;;;16.19;100.00;95992.94;5077258;28;20021;-79
2023/08/07 04:27:45;;;;;;;9.43;2.47;;;;;;;15.73;100.00;95994.41;5067357;28;20013;-78
2023/08/07 04:30:12;;;;;;;7.40;2.67;;;;;;;16.20;100.00;95989.28;5051854;28;20037;-80
2023/08/07 04:32:37;;;;;;;9.27;2.57;;;;;;;16.19;100.00;95983.13;5063539;28;20031;-79
2023/08/07 04:35:15;;;;;;;7.87;2.20;;;;;;;16.36;100.00;95988.06;5063561;28;20025;-79
2023/08/07 04:37:41;;;;;;;4.47;1.80;;;;;;;15.88;100.00;95990.81;5069813;28;20044;-79
2023/08/07 04:40:08;;;;;;;5.23;2.10;;;;;;;16.30;100.00;95994.19;5069028;28;20024;-79
2023/08/07 04:42:34;;;;;;;7.13;2.27;;;;;;;16.05;100.00;95999.22;5068419;28;20344;-79
2023/08/07 04:44:59;;;;;;;7.03;2.07;;;;;;;15.75;100.00;95995.03;5052691;28;20028;-79
2023/08/07 04:47:25;;;;;;;6.27;2.23;;;;;;;16.02;100.00;96001.25;5052107;28;20036;-79
2023/08/07 04:49:50;;;;;;;6.17;2.17;;;;;;;16.25;100.00;95992.94;5069188;28;20021;-79
2023/08/07 04:52:16;;;;;;;7.03;2.00;;;;;;;16.09;100.00;96001.28;5046415;28;20025;-79
2023/08/07 04:54:41;;;;;;;5.47;2.30;;;;;;;15.94;100.00;96005.94;5069566;28;20035;-78
2023/08/07 04:57:07;;;;;;;10.33;2.47;;;;;;;16.00;100.00;95997.19;5062802;28;20032;-79
2023/08/07 04:59:32;;;;;;;8.40;2.03;;;;;;;15.74;100.00;96006.66;5050165;28;20028;-78
2023/08/07 05:01:58;;;;;;;5.80;2.27;;;;;;;15.81;100.00;96005.88;5065276;28;20029;-78
2023/08/07 05:04:23;;;;;;;7.60;2.57;;;;;;;16.00;100.00;96005.13;5052684;28;20032;-78
2023/08/07 05:06:49;;;;;;;5.87;2.03;;;;;;;16.16;100.00;96014.56;5053330;28;20024;-78
2023/08/07 05:09:14;;;;;;;7.90;2.70;;;;;;;15.99;100.00;96012.25;5068390;28;20403;-79
2023/08/07 05:11:54;;;;;;;7.73;2.30;;;;;;;16.13;100.00;96007.84;5065467;28;20111;-79
2023/08/07 05:14:20;;;;;;;7.53;2.77;;;;;;;16.21;100.00;96017.44;5066075;28;20032;-79
2023/08/07 05:16:46;;;;;;;5.73;2.20;;;;;;;15.77;100.00;96014.22;5051478;28;20807;-79
2023/08/07 05:19:11;;;;;;;5.60;2.27;;;;;;;15.88;100.00;96012.00;5069655;28;20386;-79
2023/08/07 05:21:37;;;;;;;5.30;1.83;;;;;;;15.88;100.00;96012.00;5046798;28;20043;-79
2023/08/07 05:24:03;;;;;;;9.20;2.67;;;;;;;15.95;100.00;96011.00;5060264;28;20031;-79
2023/08/07 05:26:29;;;;;;;8.87;3.80;;;;;;;16.43;100.00;96023.41;5068752;28;20024;-79
2023/08/07 05:28:57;;;;;;;12.03;2.83;;;;;;;16.23;100.00;96026.00;5062407;28;20907;-79
2023/08/07 05:31:24;;;;;;;6.00;2.30;;;;;;;15.67;100.00;96029.66;5051391;28;20104;-79
2023/08/07 05:33:49;;;;;;;6.70;2.27;;;;;;;16.06;100.00;96028.19;5069437;28;20059;-79
2023/08/07 05:36:15;;;;;;;4.90;2.70;;;;;;;15.85;100.00;96037.09;5041311;28;20499;-79
2023/08/07 05:38:50;;;;;;;6.80;2.93;;;;;;;16.38;100.00;96034.63;5067173;28;20040;-79
2023/08/07 05:41:16;;;;;;;10.10;3.20;;;;;;;16.07;100.00;96032.50;5051187;28;20024;-79
2023/08/07 05:43:42;;;;;;;8.90;3.03;;;;;;;15.96;100.00;96033.91;5051710;28;20043;-79
2023/08/07 05:46:07;;;;;;;5.57;2.20;;;;;;;16.04;100.00;96038.19;5046347;28;20031;-79
2023/08/07 05:48:33;;;;;;;7.50;2.17;;;;;;;15.71;100.00;96041.50;5048742;28;20441;-79
2023/08/07 05:51:06;;;;;;;9.40;2.83;;;;;;;15.93;100.00;96036.13;5064351;28;20029;-79
2023/08/07 05:53:37;;;;;;;7.17;2.63;;;;;;;16.35;100.00;96047.50;5039395;28;20112;-79
2023/08/07 05:56:03;;;;;;;6.70;2.53;;;;;;;15.55;100.00;96044.44;5070665;28;20037;-79
2023/08/07 05:58:28;;;;;;;7.20;2.37;;;;;;;15.54;100.00;96053.41;5071625;28;20020;-79
2023/08/07 06:00:54;;;;;;;7.27;2.30;;;;;;;15.99;100.00;96056.53;5067559;28;20032;-79
2023/08/07 06:03:21;;;;;;;8.43;2.33;;;;;;;16.15;100.00;96060.69;5066433;28;20088;-79
2023/08/07 06:05:49;;;;;;;6.67;2.73;;;;;;;16.23;100.00;96058.69;5050397;28;20070;-79
2023/08/07 06:08:15;;;;;;;7.43;2.73;;;;;;;15.97;100.00;96063.88;5070326;28;20098;-79
2023/08/07 06:10:50;;;;;;;10.17;2.53;;;;;;;15.98;100.00;96066.31;5061852;28;20501;-80
2023/08/07 06:13:15;;;;;;;7.13;2.40;;;;;;;15.79;100.00;96067.88;5057427;28;20033;-80
2023/08/07 06:15:41;;;;;;;12.77;4.50;;;;;;;16.16;100.00;96063.16;5049557;28;20383;-80
2023/08/07 06:18:06;;;;;;;6.90;2.50;;;;;;;16.42;100.00;96072.22;5071189;28;20113;-79
2023/08/07 06:20:33;;;;;;;4.37;2.17;;;;;;;15.94;100.00;96074.88;5073039;28;20106;-78
2023/08/07 06:22:59;;;;;;;11.97;6.03;;;;;;;16.66;100.00;96071.66;5072265;28;20044;-81
2023/08/07 06:25:24;;;;;;;83.20;54.33;;;;;;;16.86;100.00;96068.25;5056175;28;20474;-78
2023/08/07 06:27:50;;;;;;;11.93;3.40;;;;;;;16.75;100.00;96071.50;5068481;28;20032;-79
2023/08/07 06:30:19;;;;;;;6.33;2.10;;;;;;;16.47;100.00;96075.91;5058577;28;20071;-81
2023/08/07 06:32:45;;;;;;;6.53;1.80;;;;;;;16.46;100.00;96070.78;5055268;28;20041;-79
2023/08/07 06:35:11;;;;;;;9.37;2.57;;;;;;;16.80;100.00;96067.22;5056541;28;20076;-79
2023/08/07 06:37:36;;;;;;;6.50;2.13;;;;;;;16.82;100.00;96072.34;5060864;28;20494;-80
2023/08/07 06:40:02;;;;;;;6.87;2.30;;;;;;;17.25;100.00;96079.94;5070011;28;20036;-80
2023/08/07 06:42:28;;;;;;;10.37;2.47;;;;;;;16.52;100.00;96080.59;5070737;28;20432;-80
2023/08/07 06:44:53;;;;;;;8.70;2.00;;;;;;;16.50;100.00;96086.13;5064922;28;20024;-80
2023/08/07 06:47:26;;;;;;;9.10;2.43;;;;;;;15.87;100.00;96079.34;5065139;28;20873;-79
2023/08/07 06:49:51;;;;;;;6.72;2.28;;;;;;;16.22;100.00;96080.91;5049557;28;20074;-79
2023/08/07 06:52:17;;;;;;;5.13;2.03;;;;;;;16.37;100.00;96086.09;5049075;28;20036;-80
2023/08/07 06:54:42;;;;;;;7.73;2.70;;;;;;;16.72;100.00;96093.94;5071461;28;20036;-80
2023/08/07 06:57:08;;;;;;;9.07;2.57;;;;;;;16.77;100.00;96090.69;5072089;28;20058;-80
2023/08/07 06:59:38;;;;;;;8.07;2.83;;;;;;;16.78;100.00;96084.38;5054997;28;20024;-79
2023/08/07 07:02:04;;;;;;;5.70;2.27;;;;;;;16.62;100.00;96098.81;5059678;28;20390;-79
2023/08/07 07:04:29;;;;;;;8.30;2.47;;;;;;;16.33;100.00;96089.31;5059529;28;20027;-79
2023/08/07 07:06:56;;;;;;;5.63;2.40;;;;;;;16.99;100.00;96104.63;5055063;28;20115;-80
2023/08/07 07:09:22;;;;;;;7.40;2.20;;;;;;;16.82;100.00;96105.00;5056035;28;20047;-80
2023/08/07 07:11:47;;;;;;;8.13;2.33;;;;;;;16.68;100.00;96104.13;5051957;28;20032;-79
2023/08/07 07:14:13;;;;;;;9.20;3.07;;;;;;;17.19;100.00;96106.28;5065591;28;20021;-79
2023/08/07 07:16:39;;;;;;;7.37;2.00;;;;;;;17.17;100.00;96108.34;5042402;28;20028;-79
2023/08/07 07:19:08;;;;;;;7.30;2.53;;;;;;;17.44;100.00;96116.31;5061067;28;20742;-80
2023/08/07 07:21:37;;;;;;;6.83;2.70;;;;;;;16.64;100.00;96107.41;5053715;28;20078;-80
2023/08/07 07:24:20;;;;;;;4.57;1.83;;;;;;;16.92;100.00;96109.94;5052444;28;20055;-79
2023/08/07 07:26:47;;;;;;;6.15;2.22;;;;;;;17.48;100.00;96114.88;5070160;28;20023;-80
2023/08/07 07:29:13;;;;;;;7.50;2.20;;;;;;;17.81;100.00;96122.06;5054947;28;20087;-79
2023/08/07 07:31:41;;;;;;;4.83;1.93;;;;;;;17.53;100.00;96122.25;5058531;28;20411;-79
2023/08/07 07:34:07;;;;;;;7.70;2.13;;;;;;;17.40;100.00;96121.25;5065172;28;20041;-80
2023/08/07 07:36:34;;;;;;;8.13;2.00;;;;;;;17.72;100.00;96123.25;5064024;28;20029;-80
2023/08/07 07:39:00;;;;;;;6.40;2.17;;;;;;;17.84;100.00;96116.28;5065451;28;20382;-80
2023/08/07 07:41:26;;;;;;;6.60;1.87;;;;;;;17.82;100.00;96126.34;5065660;28;20043;-79
2023/08/07 07:43:53;;;;;;;13.13;2.73;;;;;;;18.14;100.00;96125.47;5049783;28;20046;-80
2023/08/07 07:46:19;;;;;;;5.87;1.43;;;;;;;18.28;100.00;96115.56;5065317;28;20098;-79
2023/08/07 07:48:44;;;;;;;7.03;1.90;;;;;;;18.70;100.00;96125.84;5063652;28;20036;-80
2023/08/07 07:51:10;;;;;;;7.00;1.90;;;;;;;18.63;100.00;96123.22;5068707;28;20035;-80
2023/08/07 07:53:35;;;;;;;17.83;9.70;;;;;;;19.02;100.00;96122.22;5071547;28;20037;-79
2023/08/07 07:56:01;;;;;;;5.30;1.67;;;;;;;19.02;100.00;96121.41;5061552;28;20051;-81
2023/08/07 07:58:27;;;;;;;7.13;1.80;;;;;;;18.25;100.00;96134.63;5090310;28;20234;-81
2023/08/07 08:00:54;;;;;;;6.87;1.40;;;;;;;18.49;100.00;96138.44;5072517;28;20033;-81
2023/08/07 08:03:20;;;;;;;5.60;1.80;;;;;;;18.96;100.00;96132.91;5055775;28;20038;-80
2023/08/07 08:06:06;;;;;;;6.73;2.60;;;;;;;18.78;100.00;96141.63;5069234;28;20040;-81
2023/08/07 08:08:31;;;;;;;4.47;1.57;;;;;;;18.92;100.00;96142.38;5063460;28;20016;-80
2023/08/07 08:10:57;;;;;;;4.23;1.73;;;;;;;18.19;100.00;96154.09;5053695;28;20024;-80
2023/08/07 08:13:25;;;;;;;4.43;1.30;;;;;;;18.45;100.00;96149.72;5072316;28;20573;-80
2023/08/07 08:15:50;;;;;;;4.73;1.60;;;;;;;18.40;100.00;96155.66;5071228;28;20042;-80
2023/08/07 08:18:16;;;;;;;8.37;1.43;;;;;;;18.42;100.00;96150.16;5054396;28;20119;-80
2023/08/07 08:20:44;;;;;;;5.40;1.50;;;;;;;18.35;100.00;96153.63;5070325;28;20553;-80
2023/08/07 08:23:13;;;;;;;5.13;2.00;;;;;;;18.55;100.00;96161.56;5069356;28;20031;-80
2023/08/07 08:25:39;;;;;;;4.10;2.00;;;;;;;18.37;100.00;96164.88;5053347;28;20028;-79
2023/08/07 08:28:05;;;;;;;3.53;1.27;;;;;;;17.41;100.00;96149.44;5054368;28;20036;-80
2023/08/07 08:30:32;;;;;;;4.30;1.57;;;;;;;18.16;100.00;96164.34;5051895;28;20027;-80
2023/08/07 08:32:57;;;;;;;4.77;1.37;;;;;;;18.22;100.00;96168.84;5067404;28;20359;-80
2023/08/07 08:35:23;;;;;;;5.57;1.60;;;;;;;18.29;100.00;96173.09;5049146;28;20062;-79
2023/08/07 08:37:48;;;;;;;6.13;1.60;;;;;;;18.96;100.00;96171.03;5071071;28;20474;-79
2023/08/07 08:40:17;;;;;;;6.97;1.43;;;;;;;18.54;100.00;96183.91;5069268;28;20029;-80
2023/08/07 08:42:44;;;;;;;4.90;1.67;;;;;;;18.45;100.00;96185.16;5070017;28;20044;-80
2023/08/07 08:45:13;;;;;;;3.27;1.40;;;;;;;18.29;100.00;96188.28;5052858;28;20091;-80
2023/08/07 08:47:41;;;;;;;5.30;2.37;;;;;;;18.47;100.00;96185.75;5052489;28;20047;-80
2023/08/07 08:50:13;;;;;;;7.70;1.70;;;;;;;18.32;100.00;96185.19;5070088;28;20016;-80
2023/08/07 08:52:44;;;;;;;4.97;1.80;;;;;;;18.25;100.00;96185.22;5053400;28;20032;-80
2023/08/07 08:55:29;;;;;;;5.90;1.40;;;;;;;19.08;100.00;96188.00;5052105;28;20028;-79
2023/08/07 08:57:55;;;;;;;3.83;1.30;;;;;;;18.90;100.00;96198.53;5053415;28;20093;-80
2023/08/07 09:00:22;;;;;;;4.53;1.40;;;;;;;19.01;100.00;96183.69;5061673;28;20067;-80
2023/08/07 09:02:49;;;;;;;6.07;1.80;;;;;;;19.08;100.00;96190.66;5070434;28;20092;-80
2023/08/07 09:05:23;;;;;;;7.77;1.97;;;;;;;19.06;100.00;96192.69;5065588;28;20497;-79
2023/08/07 09:07:50;;;;;;;3.93;1.43;;;;;;;19.45;100.00;96196.16;5053864;28;20025;-80
2023/08/07 09:10:20;;;;;;;4.87;1.50;;;;;;;19.58;100.00;96199.75;5053737;28;20033;-79
2023/08/07 09:12:57;;;;;;;6.43;1.93;;;;;;;19.15;100.00;96187.94;5070449;28;20457;-80
2023/08/07 09:15:24;;;;;;;5.43;1.27;;;;;;;19.39;100.00;96189.03;5052780;28;20104;-80
2023/08/07 09:17:52;;;;;;;4.37;1.50;;;;;;;19.66;100.00;96197.69;5053552;28;20036;-79
2023/08/07 09:20:19;;;;;;;4.93;1.60;;;;;;;19.57;100.00;96190.13;5064497;28;20147;-79
2023/08/07 09:22:46;;;;;;;5.07;1.67;;;;;;;20.24;100.00;96186.69;5053166;28;20039;-80
2023/08/07 09:25:11;;;;;;;4.53;1.65;;;;;;;20.43;100.00;96192.84;5052729;28;20021;-80
2023/08/07 09:27:38;;;;;;;4.97;1.42;;;;;;;20.31;100.00;96193.81;5062557;28;20035;-79
2023/08/07 09:30:07;;;;;;;6.22;1.30;;;;;;;20.29;100.00;96206.56;5064632;28;20020;-79
2023/08/07 09:32:38;;;;;;;4.72;1.50;;;;;;;19.94;100.00;96199.09;5060851;28;20457;-79
2023/08/07 09:35:05;;;;;;;5.63;1.85;;;;;;;19.95;100.00;96198.88;5060144;28;20450;-79
2023/08/07 09:37:31;;;;;;;7.68;1.50;;;;;;;19.94;100.00;96220.44;5055171;28;20078;-79
2023/08/07 09:39:59;;;;;;;3.35;1.27;;;;;;;19.91;100.00;96219.03;5051352;28;20028;-79
2023/08/07 09:42:25;;;;;;;5.25;2.20;;;;;;;20.37;100.00;96219.63;5057847;28;20263;-79
2023/08/07 09:45:00;;;;;;;4.30;1.70;;;;;;;19.84;100.00;96228.94;5048394;28;20085;-79
2023/08/07 09:47:27;;;;;;;3.90;1.20;;;;;;;19.71;100.00;96231.69;5069760;28;20111;-79
2023/08/07 09:49:55;;;;;;;7.65;2.20;;;;;;;20.46;100.00;96224.47;5068803;28;20059;-79
2023/08/07 09:52:20;;;;;;;9.25;2.35;;;;;;;20.22;100.00;96228.81;5062711;28;20752;-80
2023/08/07 09:54:46;;;;;;;5.38;2.20;;;;;;;20.46;100.00;96229.00;5069290;28;20029;-79
2023/08/07 09:57:13;;;;;;;4.90;1.35;;;;;;;20.43;100.00;96232.94;5049969;28;20029;-79
2023/08/07 09:59:49;;;;;;;3.15;1.38;;;;;;;20.68;100.00;96234.75;5062228;28;20021;-79
2023/08/07 10:02:15;;;;;;;4.88;1.40;;;;;;;20.69;100.00;96231.03;5048122;28;20025;-79
2023/08/07 10:04:44;;;;;;;3.83;1.58;;;;;;;19.89;100.00;96234.44;5066279;28;20020;-80
2023/08/07 10:07:15;;;;;;;4.28;1.50;;;;;;;19.70;100.00;96240.75;5044532;28;20686;-80
2023/08/07 10:09:42;;;;;;;8.27;2.88;;;;;;;19.54;100.00;96236.72;5068979;28;20047;-79
2023/08/07 10:12:07;;;;;;;5.93;2.60;;;;;;;19.72;100.00;96236.03;5067958;28;20025;-79
2023/08/07 10:14:33;;;;;;;9.27;4.22;;;;;;;20.12;100.00;96233.00;5069101;28;20035;-79
2023/08/07 10:16:59;;;;;;;3.15;1.40;;;;;;;20.74;100.00;96233.03;5065230;28;20024;-79
2023/08/07 10:19:24;;;;;;;4.93;2.20;;;;;;;20.43;100.00;96232.94;5058572;28;20024;-80
2023/08/07 10:21:51;;;;;;;3.97;1.52;;;;;;;20.97;100.00;96235.84;5053927;28;20032;-79
2023/08/07 10:24:17;;;;;;;4.13;1.67;;;;;;;22.22;96.37;96232.41;5051996;28;20043;-79
2023/08/07 10:26:48;;;;;;;5.75;1.33;;;;;;;22.83;88.09;96223.00;5053325;28;20028;-80
2023/08/07 10:29:17;;;;;;;2.55;1.20;;;;;;;23.42;84.40;96225.53;5051593;28;20063;-80
2023/08/07 10:31:44;;;;;;;4.90;1.60;;;;;;;24.40;75.63;96222.59;5068056;28;20020;-80
2023/08/07 10:34:10;;;;;;;4.45;1.50;;;;;;;24.73;76.54;96232.50;5041372;28;20060;-79
2023/08/07 10:36:41;;;;;;;5.22;1.65;;;;;;;24.65;70.41;96219.47;5050274;28;20056;-81
2023/08/07 10:39:11;;;;;;;3.33;1.33;;;;;;;23.21;75.95;96227.03;5049975;28;20032;-78
2023/08/07 10:41:45;;;;;;;3.10;1.40;;;;;;;23.45;74.38;96234.97;5070062;28;20028;-82
2023/08/07 10:44:22;;;;;;;2.80;1.08;;;;;;;24.52;67.34;96223.34;5049595;28;20020;-81
2023/08/07 10:46:53;;;;;;;4.80;1.40;;;;;;;24.64;66.20;96229.41;5054493;28;20024;-81
2023/08/07 10:49:40;;;;;;;3.47;1.10;;;;;;;25.44;63.61;96229.84;5072359;28;20028;-81
2023/08/07 10:52:11;;;;;;;3.67;1.27;;;;;;;24.76;61.64;96226.63;5065224;28;20029;-81
2023/08/07 10:54:44;;;;;;;3.90;1.60;;;;;;;24.72;62.62;96214.72;5069390;28;20103;-81
2023/08/07 10:57:15;;;;;;;5.05;1.65;;;;;;;25.27;61.23;96224.56;5069595;28;20093;-81
2023/08/07 11:00:04;;;;;;;3.95;1.20;;;;;;;25.18;61.30;96215.28;5071517;28;20024;-81
2023/08/07 11:02:30;;;;;;;4.90;1.08;;;;;;;24.12;59.02;96210.91;5061680;28;20558;-81
2023/08/07 11:05:01;;;;;;;3.85;1.35;;;;;;;24.16;58.67;96225.47;5064163;28;20028;-81
2023/08/07 11:07:30;;;;;;;6.97;2.08;;;;;;;23.01;60.34;96229.31;5072977;28;20074;-83
2023/08/07 11:10:21;;;;;;;3.83;1.10;;;;;;;22.75;63.98;96230.63;5070914;28;20020;-81
2023/08/07 11:12:48;;;;;;;6.05;1.63;;;;;;;22.82;64.23;96225.94;5068559;28;20091;-81
2023/08/07 11:15:14;;;;;;;5.40;1.33;;;;;;;22.91;63.29;96232.56;5072977;28;20129;-81
2023/08/07 11:17:57;;;;;;;4.05;1.30;;;;;;;23.08;64.31;96232.69;5068668;28;20024;-80
2023/08/07 11:20:32;;;;;;;3.22;0.90;;;;;;;23.00;63.66;96241.06;5064487;28;20071;-83
2023/08/07 11:23:00;;;;;;;2.92;1.35;;;;;;;23.14;61.60;96223.69;5056067;28;20036;-85
2023/08/07 11:25:33;;;;;;;3.40;1.17;;;;;;;24.30;60.94;96225.13;5073833;28;20088;-81
2023/08/07 11:28:05;;;;;;;4.78;1.35;;;;;;;25.06;58.71;96218.09;5051978;28;20088;-81
2023/08/07 11:30:31;;;;;;;5.63;1.23;;;;;;;24.18;58.04;96234.09;5072038;28;20017;-81